EST,Max TemperatureF,Mean TemperatureF,Min TemperatureF,Max Dew PointF,MeanDew PointF,Min DewpointF,Max Humidity, Mean Humidity, Min Humidity, Max Sea Level PressureIn, Mean Sea Level PressureIn, Min Sea Level PressureIn, Max VisibilityMiles, Mean VisibilityMiles, Min VisibilityMiles, Max Wind SpeedMPH, Mean Wind SpeedMPH, Max Gust SpeedMPH,PrecipitationIn, CloudCover, Events, WindDirDegrees
2013-11-1,75,70,66,70,66,64,100,86,73,29.96,29.79,29.69,10,10,5,17,11,26,0.42,3,Rain,195
2013-11-2,71,63,55,70,59,46,100,83,50,29.90,29.73,29.65,10,10,7,8,6,,0.05,3,Rain,270
2013-11-3,62,52,42,48,42,36,93,67,42,30.37,30.13,29.90,10,10,10,15,4,20,0.00,1,Rain,331
2013-11-4,51,44,37,43,40,34,100,74,54,30.57,30.54,30.39,10,10,10,14,7,21,0.00,2,,13
2013-11-5,66,55,44,55,49,43,100,87,60,30.55,30.50,30.45,10,10,10,12,5,,0.00,4,,21
2013-11-6,71,58,44,59,54,45,100,83,57,30.46,30.31,30.13,10,10,4,8,2,,0.00,3,,87
2013-11-7,69,60,51,64,59,39,100,89,62,30.13,29.98,29.88,10,8,3,12,3,18,0.72,6,Rain,289
2013-11-8,55,45,35,39,34,28,100,64,36,30.33,30.21,30.08,10,10,10,13,6,18,0.00,0,,317
2013-11-9,57,45,33,43,38,32,93,70,38,30.39,30.25,30.16,10,10,10,12,4,16,0.00,0,,198
2013-11-10,69,58,46,43,38,28,82,47,31,30.25,30.10,30.00,10,10,10,18,10,28,0.00,0,,281
2013-11-11,57,46,35,41,36,30,93,68,44,30.30,30.22,30.13,10,10,10,10,4,17,0.00,0,,196
2013-11-12,57,47,37,43,30,19,87,57,45,30.37,30.23,30.06,10,10,5,16,8,25,0.00,5,Snow,346
2013-11-13,44,35,26,25,21,18,93,59,37,30.48,30.45,30.38,10,10,10,16,7,28,0.00,0,,328
2013-11-14,57,42,26,28,25,21,93,59,26,30.46,30.39,30.33,10,10,10,14,3,18,0.00,0,,210
2013-11-15,64,47,30,50,37,27,86,65,37,30.36,30.30,30.24,10,10,10,10,3,,0.00,1,,200
2013-11-16,64,56,48,57,54,48,100,92,73,30.31,30.26,30.23,10,8,0,7,2,,0.00,6,Fog-Rain,24
2013-11-17,71,61,51,66,59,52,100,92,73,30.24,30.10,29.90,10,7,0,14,2,21,0.08,5,Fog-Rain,163
2013-11-18,73,63,53,68,52,30,100,65,32,29.91,29.84,29.78,10,10,5,17,10,24,0.04,3,Rain,255
2013-11-19,55,48,42,37,32,30,81,55,41,30.33,30.14,29.92,10,10,10,15,6,21,0.00,0,,351
2013-11-20,51,44,37,43,39,34,93,73,62,30.48,30.43,30.33,10,10,10,16,7,25,0.00,3,,28
2013-11-21,62,53,44,55,49,45,100,89,72,30.51,30.45,30.40,10,9,0,8,4,,0.00,5,Fog-Rain,30
2013-11-22,73,58,44,63,55,45,100,87,60,30.39,30.22,30.06,10,8,1,15,4,21,0.05,4,Rain,215
2013-11-23,62,50,37,63,43,28,100,72,33,30.12,30.06,30.02,10,10,5,13,5,17,0.03,5,Rain,328
2013-11-24,42,35,26,27,11,3,60,41,26,30.55,30.38,30.12,10,10,10,21,10,25,0.00,0,,328
2013-11-25,41,30,19,21,13,7,86,47,26,30.62,30.53,30.41,10,10,10,6,2,,0.00,0,,237
2013-11-26,66,50,33,66,43,21,100,83,60,30.41,30.10,29.60,10,9,3,22,4,30,0.66,6,Rain,88
2013-11-27,68,52,35,68,47,30,100,95,75,30.08,29.66,29.46,10,9,2,30,12,33,1.08,7,Rain,293
2013-11-28,42,35,28,28,23,18,100,67,39,30.51,30.37,30.09,10,10,10,13,6,18,0.00,0,,305
2013-11-29,46,35,24,30,27,25,100,75,46,30.67,30.58,30.50,10,10,10,14,3,20,0.00,0,,22
2013-11-30,50,40,30,39,35,27,93,82,66,30.66,30.55,30.37,10,10,10,13,4,18,0.00,1,,20